sensor_id;sensor_type;location;lat;lon;timestamp;temperature;humidity
50955;DHT22;36966;48.064;-0.792;2023-02-15T00:00:21;14.70;40.10
50955;DHT22;36966;48.064;-0.792;2023-02-15T00:02:40;14.70;40.10
50955;DHT22;36966;48.064;-0.792;2023-02-15T00:05:00;14.70;40.00
50955;DHT22;36966;48.064;-0.792;2023-02-15T00:07:19;14.60;40.10
50955;DHT22;36966;48.064;-0.792;2023-02-15T00:09:38;14.60;40.00
50955;DHT22;36966;48.064;-0.792;2023-02-15T00:11:58;14.60;40.00
50955;DHT22;36966;48.064;-0.792;2023-02-15T00:14:24;14.60;40.00
50955;DHT22;36966;48.064;-0.792;2023-02-15T00:16:44;14.60;40.00
50955;DHT22;36966;48.064;-0.792;2023-02-15T00:19:04;14.60;40.00
50955;DHT22;36966;48.064;-0.792;2023-02-15T00:21:23;14.60;40.00
50955;DHT22;36966;48.064;-0.792;2023-02-15T00:23:42;14.60;40.00
50955;DHT22;36966;48.064;-0.792;2023-02-15T00:26:11;14.60;40.00
50955;DHT22;36966;48.064;-0.792;2023-02-15T00:28:31;14.60;40.00
50955;DHT22;36966;48.064;-0.792;2023-02-15T00:30:51;14.60;40.00
50955;DHT22;36966;48.064;-0.792;2023-02-15T00:33:10;14.60;40.00
50955;DHT22;36966;48.064;-0.792;2023-02-15T00:35:29;14.60;40.00
50955;DHT22;36966;48.064;-0.792;2023-02-15T00:37:48;14.60;40.00
50955;DHT22;36966;48.064;-0.792;2023-02-15T00:40:08;14.50;40.00
50955;DHT22;36966;48.064;-0.792;2023-02-15T00:42:28;14.50;40.00
50955;DHT22;36966;48.064;-0.792;2023-02-15T00:44:47;14.50;40.00
50955;DHT22;36966;48.064;-0.792;2023-02-15T00:47:06;14.50;40.00
50955;DHT22;36966;48.064;-0.792;2023-02-15T00:49:25;14.50;40.00
50955;DHT22;36966;48.064;-0.792;2023-02-15T00:51:44;14.50;40.00
50955;DHT22;36966;48.064;-0.792;2023-02-15T00:54:04;14.50;40.00
50955;DHT22;36966;48.064;-0.792;2023-02-15T00:56:24;14.50;40.00
50955;DHT22;36966;48.064;-0.792;2023-02-15T00:58:43;14.50;40.00
50955;DHT22;36966;48.064;-0.792;2023-02-15T01:01:07;14.50;40.00
50955;DHT22;36966;48.064;-0.792;2023-02-15T01:03:27;14.50;40.00
50955;DHT22;36966;48.064;-0.792;2023-02-15T01:05:47;14.50;39.90
50955;DHT22;36966;48.064;-0.792;2023-02-15T01:08:07;14.50;39.90
50955;DHT22;36966;48.064;-0.792;2023-02-15T01:10:27;14.50;39.90
50955;DHT22;36966;48.064;-0.792;2023-02-15T01:12:46;14.50;39.90
50955;DHT22;36966;48.064;-0.792;2023-02-15T01:15:06;14.50;40.00
50955;DHT22;36966;48.064;-0.792;2023-02-15T01:17:25;14.50;39.90
50955;DHT22;36966;48.064;-0.792;2023-02-15T01:19:45;14.50;39.90
50955;DHT22;36966;48.064;-0.792;2023-02-15T01:22:04;14.40;40.00
50955;DHT22;36966;48.064;-0.792;2023-02-15T01:24:23;14.40;39.90
50955;DHT22;36966;48.064;-0.792;2023-02-15T01:26:42;14.40;39.90
50955;DHT22;36966;48.064;-0.792;2023-02-15T01:29:01;14.40;40.00
50955;DHT22;36966;48.064;-0.792;2023-02-15T01:31:21;14.40;39.90
50955;DHT22;36966;48.064;-0.792;2023-02-15T01:33:40;14.40;40.00
50955;DHT22;36966;48.064;-0.792;2023-02-15T01:36:00;14.40;40.00
50955;DHT22;36966;48.064;-0.792;2023-02-15T01:38:19;14.40;40.00
50955;DHT22;36966;48.064;-0.792;2023-02-15T01:40:38;14.40;40.00
50955;DHT22;36966;48.064;-0.792;2023-02-15T01:42:58;14.40;40.00
50955;DHT22;36966;48.064;-0.792;2023-02-15T01:48:17;14.40;40.00
50955;DHT22;36966;48.064;-0.792;2023-02-15T01:50:37;14.40;40.00
50955;DHT22;36966;48.064;-0.792;2023-02-15T01:53:14;14.40;40.00
50955;DHT22;36966;48.064;-0.792;2023-02-15T01:55:40;14.40;40.00
50955;DHT22;36966;48.064;-0.792;2023-02-15T01:58:01;14.40;40.00
50955;DHT22;36966;48.064;-0.792;2023-02-15T02:00:20;14.40;40.00
50955;DHT22;36966;48.064;-0.792;2023-02-15T02:02:42;14.30;40.00
50955;DHT22;36966;48.064;-0.792;2023-02-15T02:05:03;14.40;40.00
50955;DHT22;36966;48.064;-0.792;2023-02-15T02:07:28;14.40;40.00
50955;DHT22;36966;48.064;-0.792;2023-02-15T02:09:48;14.40;40.00
50955;DHT22;36966;48.064;-0.792;2023-02-15T02:12:08;14.30;40.10
50955;DHT22;36966;48.064;-0.792;2023-02-15T02:14:28;14.30;40.00
50955;DHT22;36966;48.064;-0.792;2023-02-15T02:16:57;14.30;40.00
50955;DHT22;36966;48.064;-0.792;2023-02-15T02:24:31;14.30;40.00
50955;DHT22;36966;48.064;-0.792;2023-02-15T02:38:16;14.30;40.00
50955;DHT22;36966;48.064;-0.792;2023-02-15T02:43:38;14.30;40.00
50955;DHT22;36966;48.064;-0.792;2023-02-15T02:46:05;14.30;40.00
50955;DHT22;36966;48.064;-0.792;2023-02-15T02:48:29;14.30;40.00
50955;DHT22;36966;48.064;-0.792;2023-02-15T02:50:49;14.20;40.00
50955;DHT22;36966;48.064;-0.792;2023-02-15T02:53:09;14.20;40.00
50955;DHT22;36966;48.064;-0.792;2023-02-15T02:55:39;14.20;40.00
50955;DHT22;36966;48.064;-0.792;2023-02-15T03:03:13;14.20;40.00
50955;DHT22;36966;48.064;-0.792;2023-02-15T03:05:39;14.20;40.00
50955;DHT22;36966;48.064;-0.792;2023-02-15T03:08:02;14.20;40.00
50955;DHT22;36966;48.064;-0.792;2023-02-15T03:10:25;14.20;40.00
50955;DHT22;36966;48.064;-0.792;2023-02-15T03:12:44;14.20;39.90
50955;DHT22;36966;48.064;-0.792;2023-02-15T03:15:10;14.20;40.00
50955;DHT22;36966;48.064;-0.792;2023-02-15T03:17:33;14.20;40.00
50955;DHT22;36966;48.064;-0.792;2023-02-15T03:19:57;14.20;40.00
50955;DHT22;36966;48.064;-0.792;2023-02-15T03:22:32;14.20;40.00
50955;DHT22;36966;48.064;-0.792;2023-02-15T03:25:06;14.20;40.00
50955;DHT22;36966;48.064;-0.792;2023-02-15T03:27:29;14.20;40.00
50955;DHT22;36966;48.064;-0.792;2023-02-15T03:29:54;14.20;40.00
50955;DHT22;36966;48.064;-0.792;2023-02-15T03:32:15;14.20;40.00
50955;DHT22;36966;48.064;-0.792;2023-02-15T03:34:35;14.20;40.00
50955;DHT22;36966;48.064;-0.792;2023-02-15T03:39:32;14.20;40.00
50955;DHT22;36966;48.064;-0.792;2023-02-15T03:45:05;14.10;40.00
50955;DHT22;36966;48.064;-0.792;2023-02-15T03:47:26;14.20;40.00
50955;DHT22;36966;48.064;-0.792;2023-02-15T03:52:08;14.20;40.00
50955;DHT22;36966;48.064;-0.792;2023-02-15T03:54:30;14.20;40.10
50955;DHT22;36966;48.064;-0.792;2023-02-15T03:57:03;14.20;40.10
50955;DHT22;36966;48.064;-0.792;2023-02-15T03:59:41;14.20;40.10
50955;DHT22;36966;48.064;-0.792;2023-02-15T04:02:23;14.10;40.00
50955;DHT22;36966;48.064;-0.792;2023-02-15T04:04:48;14.10;40.00
50955;DHT22;36966;48.064;-0.792;2023-02-15T04:07:08;14.10;40.10
50955;DHT22;36966;48.064;-0.792;2023-02-15T04:09:28;14.10;40.10
50955;DHT22;36966;48.064;-0.792;2023-02-15T04:12:06;14.10;40.10
50955;DHT22;36966;48.064;-0.792;2023-02-15T04:14:26;14.10;40.10
50955;DHT22;36966;48.064;-0.792;2023-02-15T04:17:08;14.10;40.10
50955;DHT22;36966;48.064;-0.792;2023-02-15T04:19:27;14.10;40.10
50955;DHT22;36966;48.064;-0.792;2023-02-15T04:22:05;14.10;40.10
50955;DHT22;36966;48.064;-0.792;2023-02-15T04:24:43;14.10;40.10
50955;DHT22;36966;48.064;-0.792;2023-02-15T04:27:22;14.10;40.10
50955;DHT22;36966;48.064;-0.792;2023-02-15T04:29:41;14.00;40.10
50955;DHT22;36966;48.064;-0.792;2023-02-15T04:32:01;14.00;40.10
50955;DHT22;36966;48.064;-0.792;2023-02-15T04:34:21;14.10;40.10
50955;DHT22;36966;48.064;-0.792;2023-02-15T04:36:40;14.00;40.20
50955;DHT22;36966;48.064;-0.792;2023-02-15T04:38:59;14.00;40.10
50955;DHT22;36966;48.064;-0.792;2023-02-15T04:41:18;14.00;40.20
50955;DHT22;36966;48.064;-0.792;2023-02-15T04:43:37;14.00;40.20
50955;DHT22;36966;48.064;-0.792;2023-02-15T04:45:57;14.00;40.20
50955;DHT22;36966;48.064;-0.792;2023-02-15T04:48:17;14.00;40.20
50955;DHT22;36966;48.064;-0.792;2023-02-15T04:50:37;14.00;40.10
50955;DHT22;36966;48.064;-0.792;2023-02-15T04:52:56;14.00;40.20
50955;DHT22;36966;48.064;-0.792;2023-02-15T04:55:15;14.00;40.20
50955;DHT22;36966;48.064;-0.792;2023-02-15T04:57:34;14.00;40.20
50955;DHT22;36966;48.064;-0.792;2023-02-15T04:59:53;14.00;40.20
50955;DHT22;36966;48.064;-0.792;2023-02-15T05:02:13;14.00;40.20
50955;DHT22;36966;48.064;-0.792;2023-02-15T05:04:32;14.00;40.20
50955;DHT22;36966;48.064;-0.792;2023-02-15T05:06:51;14.00;40.20
50955;DHT22;36966;48.064;-0.792;2023-02-15T05:09:13;14.00;40.20
50955;DHT22;36966;48.064;-0.792;2023-02-15T05:11:33;14.00;40.20
50955;DHT22;36966;48.064;-0.792;2023-02-15T05:13:52;14.00;40.10
50955;DHT22;36966;48.064;-0.792;2023-02-15T05:16:11;14.00;40.10
50955;DHT22;36966;48.064;-0.792;2023-02-15T05:18:30;14.00;40.10
50955;DHT22;36966;48.064;-0.792;2023-02-15T05:20:49;13.90;40.10
50955;DHT22;36966;48.064;-0.792;2023-02-15T05:23:09;13.90;40.10
50955;DHT22;36966;48.064;-0.792;2023-02-15T05:25:28;13.90;40.10
50955;DHT22;36966;48.064;-0.792;2023-02-15T05:28:09;14.00;40.10
50955;DHT22;36966;48.064;-0.792;2023-02-15T05:30:38;13.90;40.10
50955;DHT22;36966;48.064;-0.792;2023-02-15T05:32:58;13.90;40.10
50955;DHT22;36966;48.064;-0.792;2023-02-15T05:35:17;13.90;40.10
50955;DHT22;36966;48.064;-0.792;2023-02-15T05:37:37;13.90;40.10
50955;DHT22;36966;48.064;-0.792;2023-02-15T05:39:56;13.90;40.10
50955;DHT22;36966;48.064;-0.792;2023-02-15T05:42:15;13.90;40.10
50955;DHT22;36966;48.064;-0.792;2023-02-15T05:44:34;13.90;40.00
50955;DHT22;36966;48.064;-0.792;2023-02-15T05:46:53;13.90;40.10
50955;DHT22;36966;48.064;-0.792;2023-02-15T05:49:12;13.80;40.10
50955;DHT22;36966;48.064;-0.792;2023-02-15T05:51:31;13.80;40.00
50955;DHT22;36966;48.064;-0.792;2023-02-15T05:53:50;13.90;40.00
50955;DHT22;36966;48.064;-0.792;2023-02-15T05:56:11;13.80;40.00
50955;DHT22;36966;48.064;-0.792;2023-02-15T05:58:39;13.80;40.00
50955;DHT22;36966;48.064;-0.792;2023-02-15T06:00:58;13.80;40.00
50955;DHT22;36966;48.064;-0.792;2023-02-15T06:03:17;13.80;40.00
50955;DHT22;36966;48.064;-0.792;2023-02-15T06:05:36;13.80;40.00
50955;DHT22;36966;48.064;-0.792;2023-02-15T06:07:55;13.80;40.00
50955;DHT22;36966;48.064;-0.792;2023-02-15T06:10:15;13.80;40.00
50955;DHT22;36966;48.064;-0.792;2023-02-15T06:12:34;13.80;40.00
50955;DHT22;36966;48.064;-0.792;2023-02-15T06:14:53;13.80;40.00
50955;DHT22;36966;48.064;-0.792;2023-02-15T06:17:13;13.80;40.00
50955;DHT22;36966;48.064;-0.792;2023-02-15T06:19:32;13.80;40.00
50955;DHT22;36966;48.064;-0.792;2023-02-15T06:21:51;13.80;40.00
50955;DHT22;36966;48.064;-0.792;2023-02-15T06:24:10;13.80;40.00
50955;DHT22;36966;48.064;-0.792;2023-02-15T06:26:29;13.80;40.00
50955;DHT22;36966;48.064;-0.792;2023-02-15T06:28:48;13.80;40.00
50955;DHT22;36966;48.064;-0.792;2023-02-15T06:31:07;13.70;40.00
50955;DHT22;36966;48.064;-0.792;2023-02-15T06:33:27;13.80;40.00
50955;DHT22;36966;48.064;-0.792;2023-02-15T06:35:46;13.80;40.00
50955;DHT22;36966;48.064;-0.792;2023-02-15T06:38:06;13.80;40.00
50955;DHT22;36966;48.064;-0.792;2023-02-15T06:40:25;13.70;40.00
50955;DHT22;36966;48.064;-0.792;2023-02-15T06:42:45;13.70;40.00
50955;DHT22;36966;48.064;-0.792;2023-02-15T06:45:05;13.70;40.00
50955;DHT22;36966;48.064;-0.792;2023-02-15T06:47:24;13.70;40.00
50955;DHT22;36966;48.064;-0.792;2023-02-15T06:49:43;13.70;40.10
50955;DHT22;36966;48.064;-0.792;2023-02-15T06:52:03;13.70;40.10
50955;DHT22;36966;48.064;-0.792;2023-02-15T06:54:22;13.70;40.00
50955;DHT22;36966;48.064;-0.792;2023-02-15T06:56:41;13.70;40.10
50955;DHT22;36966;48.064;-0.792;2023-02-15T06:59:03;13.70;40.10
50955;DHT22;36966;48.064;-0.792;2023-02-15T07:01:22;13.70;40.10
50955;DHT22;36966;48.064;-0.792;2023-02-15T07:03:41;13.70;40.10
50955;DHT22;36966;48.064;-0.792;2023-02-15T07:06:02;13.70;40.10
50955;DHT22;36966;48.064;-0.792;2023-02-15T07:08:25;13.70;40.10
50955;DHT22;36966;48.064;-0.792;2023-02-15T07:10:44;13.70;40.10
50955;DHT22;36966;48.064;-0.792;2023-02-15T07:13:04;13.70;40.00
50955;DHT22;36966;48.064;-0.792;2023-02-15T07:15:23;13.70;40.00
50955;DHT22;36966;48.064;-0.792;2023-02-15T07:17:44;13.70;40.00
50955;DHT22;36966;48.064;-0.792;2023-02-15T07:20:17;13.70;40.00
50955;DHT22;36966;48.064;-0.792;2023-02-15T07:22:37;13.70;40.00
50955;DHT22;36966;48.064;-0.792;2023-02-15T07:24:56;13.70;40.00
50955;DHT22;36966;48.064;-0.792;2023-02-15T07:27:15;13.70;40.00
50955;DHT22;36966;48.064;-0.792;2023-02-15T07:29:34;13.70;40.10
50955;DHT22;36966;48.064;-0.792;2023-02-15T07:31:55;13.70;40.10
50955;DHT22;36966;48.064;-0.792;2023-02-15T07:34:14;13.70;40.00
50955;DHT22;36966;48.064;-0.792;2023-02-15T07:36:32;13.70;40.10
50955;DHT22;36966;48.064;-0.792;2023-02-15T07:38:52;13.70;40.00
50955;DHT22;36966;48.064;-0.792;2023-02-15T07:41:13;13.70;40.10
50955;DHT22;36966;48.064;-0.792;2023-02-15T07:43:38;13.70;40.10
50955;DHT22;36966;48.064;-0.792;2023-02-15T07:46:03;13.70;40.10
50955;DHT22;36966;48.064;-0.792;2023-02-15T07:48:23;13.70;40.00
50955;DHT22;36966;48.064;-0.792;2023-02-15T07:50:42;13.70;40.10
50955;DHT22;36966;48.064;-0.792;2023-02-15T07:53:03;13.70;40.00
50955;DHT22;36966;48.064;-0.792;2023-02-15T07:55:22;13.70;40.10
50955;DHT22;36966;48.064;-0.792;2023-02-15T07:57:46;13.70;40.10
50955;DHT22;36966;48.064;-0.792;2023-02-15T08:00:06;13.70;40.00
50955;DHT22;36966;48.064;-0.792;2023-02-15T08:02:25;13.70;40.00
50955;DHT22;36966;48.064;-0.792;2023-02-15T08:04:44;13.70;40.00
50955;DHT22;36966;48.064;-0.792;2023-02-15T08:07:03;13.70;40.10
50955;DHT22;36966;48.064;-0.792;2023-02-15T08:09:23;13.70;40.10
50955;DHT22;36966;48.064;-0.792;2023-02-15T08:11:42;13.70;40.10
50955;DHT22;36966;48.064;-0.792;2023-02-15T08:14:14;13.70;40.10
50955;DHT22;36966;48.064;-0.792;2023-02-15T08:16:45;13.70;40.10
50955;DHT22;36966;48.064;-0.792;2023-02-15T08:21:37;13.70;40.10
50955;DHT22;36966;48.064;-0.792;2023-02-15T08:23:57;13.70;40.10
50955;DHT22;36966;48.064;-0.792;2023-02-15T08:26:17;13.70;40.10
50955;DHT22;36966;48.064;-0.792;2023-02-15T08:28:36;13.70;40.10
50955;DHT22;36966;48.064;-0.792;2023-02-15T08:30:56;13.70;40.20
50955;DHT22;36966;48.064;-0.792;2023-02-15T08:33:22;13.70;40.20
50955;DHT22;36966;48.064;-0.792;2023-02-15T08:35:41;13.70;40.20
50955;DHT22;36966;48.064;-0.792;2023-02-15T08:38:00;13.70;40.20
50955;DHT22;36966;48.064;-0.792;2023-02-15T08:40:19;13.70;40.20
50955;DHT22;36966;48.064;-0.792;2023-02-15T08:42:39;13.70;40.20
50955;DHT22;36966;48.064;-0.792;2023-02-15T08:44:58;13.70;40.20
50955;DHT22;36966;48.064;-0.792;2023-02-15T08:47:17;13.70;40.20
50955;DHT22;36966;48.064;-0.792;2023-02-15T08:49:36;13.70;40.30
50955;DHT22;36966;48.064;-0.792;2023-02-15T08:51:56;13.70;40.30
50955;DHT22;36966;48.064;-0.792;2023-02-15T08:54:17;13.70;40.30
50955;DHT22;36966;48.064;-0.792;2023-02-15T08:56:39;13.70;40.30
50955;DHT22;36966;48.064;-0.792;2023-02-15T08:58:59;13.70;40.30
50955;DHT22;36966;48.064;-0.792;2023-02-15T09:01:21;13.70;40.40
50955;DHT22;36966;48.064;-0.792;2023-02-15T09:03:40;13.70;40.50
50955;DHT22;36966;48.064;-0.792;2023-02-15T09:06:00;13.80;40.50
50955;DHT22;36966;48.064;-0.792;2023-02-15T09:08:20;13.80;40.60
50955;DHT22;36966;48.064;-0.792;2023-02-15T09:10:39;13.90;40.60
50955;DHT22;36966;48.064;-0.792;2023-02-15T09:12:59;13.90;40.60
50955;DHT22;36966;48.064;-0.792;2023-02-15T09:15:18;13.90;40.70
50955;DHT22;36966;48.064;-0.792;2023-02-15T09:17:37;14.00;40.60
50955;DHT22;36966;48.064;-0.792;2023-02-15T09:19:56;14.00;40.70
50955;DHT22;36966;48.064;-0.792;2023-02-15T09:22:16;14.00;40.80
50955;DHT22;36966;48.064;-0.792;2023-02-15T09:24:35;14.10;40.80
50955;DHT22;36966;48.064;-0.792;2023-02-15T09:26:54;14.20;40.70
50955;DHT22;36966;48.064;-0.792;2023-02-15T09:29:14;14.20;40.70
50955;DHT22;36966;48.064;-0.792;2023-02-15T09:31:38;14.20;40.70
50955;DHT22;36966;48.064;-0.792;2023-02-15T09:33:59;14.30;40.60
50955;DHT22;36966;48.064;-0.792;2023-02-15T09:38:43;14.40;40.50
50955;DHT22;36966;48.064;-0.792;2023-02-15T09:47:25;14.50;40.30
50955;DHT22;36966;48.064;-0.792;2023-02-15T09:54:29;14.70;40.40
50955;DHT22;36966;48.064;-0.792;2023-02-15T09:56:55;14.70;40.60
50955;DHT22;36966;48.064;-0.792;2023-02-15T09:59:34;14.70;40.40
50955;DHT22;36966;48.064;-0.792;2023-02-15T10:12:21;15.10;40.40
50955;DHT22;36966;48.064;-0.792;2023-02-15T10:23:02;15.20;40.20
50955;DHT22;36966;48.064;-0.792;2023-02-15T10:28:24;15.40;40.10
50955;DHT22;36966;48.064;-0.792;2023-02-15T10:30:50;15.40;40.10
50955;DHT22;36966;48.064;-0.792;2023-02-15T10:33:39;15.50;40.00
50955;DHT22;36966;48.064;-0.792;2023-02-15T10:36:42;15.50;40.00
50955;DHT22;36966;48.064;-0.792;2023-02-15T10:39:05;15.50;40.00
50955;DHT22;36966;48.064;-0.792;2023-02-15T10:44:18;15.40;40.10
50955;DHT22;36966;48.064;-0.792;2023-02-15T10:54:38;15.40;40.40
50955;DHT22;36966;48.064;-0.792;2023-02-15T11:07:24;15.60;40.60
50955;DHT22;36966;48.064;-0.792;2023-02-15T11:09:48;15.70;40.70
50955;DHT22;36966;48.064;-0.792;2023-02-15T11:12:12;15.70;40.60
50955;DHT22;36966;48.064;-0.792;2023-02-15T11:14:37;15.70;40.70
50955;DHT22;36966;48.064;-0.792;2023-02-15T11:17:04;15.70;40.70
50955;DHT22;36966;48.064;-0.792;2023-02-15T11:22:13;15.80;40.60
50955;DHT22;36966;48.064;-0.792;2023-02-15T11:24:39;15.90;40.60
50955;DHT22;36966;48.064;-0.792;2023-02-15T11:29:40;16.00;40.90
50955;DHT22;36966;48.064;-0.792;2023-02-15T11:32:12;16.00;41.00
50955;DHT22;36966;48.064;-0.792;2023-02-15T11:34:38;16.10;41.20
50955;DHT22;36966;48.064;-0.792;2023-02-15T11:37:05;16.10;41.10
50955;DHT22;36966;48.064;-0.792;2023-02-15T11:39:26;16.10;41.40
50955;DHT22;36966;48.064;-0.792;2023-02-15T11:42:01;16.20;41.00
50955;DHT22;36966;48.064;-0.792;2023-02-15T11:44:45;16.20;41.20
50955;DHT22;36966;48.064;-0.792;2023-02-15T11:47:13;16.20;41.00
50955;DHT22;36966;48.064;-0.792;2023-02-15T11:49:34;16.20;41.30
50955;DHT22;36966;48.064;-0.792;2023-02-15T11:51:55;16.20;41.20
50955;DHT22;36966;48.064;-0.792;2023-02-15T11:54:17;16.20;41.30
50955;DHT22;36966;48.064;-0.792;2023-02-15T11:56:37;16.30;41.60
50955;DHT22;36966;48.064;-0.792;2023-02-15T11:59:03;16.20;41.90
50955;DHT22;36966;48.064;-0.792;2023-02-15T12:01:42;16.30;41.50
50955;DHT22;36966;48.064;-0.792;2023-02-15T12:06:52;16.30;41.50
50955;DHT22;36966;48.064;-0.792;2023-02-15T12:09:37;16.30;41.80
50955;DHT22;36966;48.064;-0.792;2023-02-15T12:12:35;16.30;41.60
50955;DHT22;36966;48.064;-0.792;2023-02-15T12:15:00;16.40;41.70
50955;DHT22;36966;48.064;-0.792;2023-02-15T12:17:23;16.40;41.90
50955;DHT22;36966;48.064;-0.792;2023-02-15T12:19:43;16.40;42.00
50955;DHT22;36966;48.064;-0.792;2023-02-15T12:22:05;16.40;41.80
50955;DHT22;36966;48.064;-0.792;2023-02-15T12:27:06;16.40;41.80
50955;DHT22;36966;48.064;-0.792;2023-02-15T12:29:39;16.40;41.90
50955;DHT22;36966;48.064;-0.792;2023-02-15T12:32:00;16.40;41.80
50955;DHT22;36966;48.064;-0.792;2023-02-15T12:34:30;16.50;41.80
50955;DHT22;36966;48.064;-0.792;2023-02-15T12:36:53;16.50;41.80
50955;DHT22;36966;48.064;-0.792;2023-02-15T12:39:22;16.50;41.90
50955;DHT22;36966;48.064;-0.792;2023-02-15T12:44:18;16.50;42.00
50955;DHT22;36966;48.064;-0.792;2023-02-15T12:46:37;16.50;41.90
50955;DHT22;36966;48.064;-0.792;2023-02-15T12:51:28;16.50;42.10
50955;DHT22;36966;48.064;-0.792;2023-02-15T12:53:47;16.50;42.00
50955;DHT22;36966;48.064;-0.792;2023-02-15T12:56:09;16.60;42.10
50955;DHT22;36966;48.064;-0.792;2023-02-15T12:58:30;16.60;42.00
50955;DHT22;36966;48.064;-0.792;2023-02-15T13:03:28;16.60;42.30
50955;DHT22;36966;48.064;-0.792;2023-02-15T13:05:55;16.60;42.50
50955;DHT22;36966;48.064;-0.792;2023-02-15T13:08:16;16.60;42.30
50955;DHT22;36966;48.064;-0.792;2023-02-15T13:10:59;16.60;42.40
50955;DHT22;36966;48.064;-0.792;2023-02-15T13:13:20;16.60;42.40
50955;DHT22;36966;48.064;-0.792;2023-02-15T13:15:42;16.60;42.40
50955;DHT22;36966;48.064;-0.792;2023-02-15T13:18:05;16.60;42.30
50955;DHT22;36966;48.064;-0.792;2023-02-15T13:20:25;16.60;42.40
50955;DHT22;36966;48.064;-0.792;2023-02-15T13:22:46;16.60;42.40
50955;DHT22;36966;48.064;-0.792;2023-02-15T13:25:19;16.60;42.60
50955;DHT22;36966;48.064;-0.792;2023-02-15T13:27:40;16.60;42.60
50955;DHT22;36966;48.064;-0.792;2023-02-15T13:30:04;16.60;42.60
50955;DHT22;36966;48.064;-0.792;2023-02-15T13:32:37;16.60;42.80
50955;DHT22;36966;48.064;-0.792;2023-02-15T13:34:59;16.60;42.80
50955;DHT22;36966;48.064;-0.792;2023-02-15T13:37:45;16.60;43.00
50955;DHT22;36966;48.064;-0.792;2023-02-15T13:45:19;16.60;43.00
50955;DHT22;36966;48.064;-0.792;2023-02-15T13:47:47;16.60;43.40
50955;DHT22;36966;48.064;-0.792;2023-02-15T13:56:04;16.50;43.60
50955;DHT22;36966;48.064;-0.792;2023-02-15T14:01:24;16.50;43.50
50955;DHT22;36966;48.064;-0.792;2023-02-15T14:07:16;16.50;43.70
50955;DHT22;36966;48.064;-0.792;2023-02-15T14:12:33;16.40;43.80
50955;DHT22;36966;48.064;-0.792;2023-02-15T14:15:18;16.40;43.80
50955;DHT22;36966;48.064;-0.792;2023-02-15T14:25:55;16.40;44.20
50955;DHT22;36966;48.064;-0.792;2023-02-15T14:28:22;16.40;44.10
50955;DHT22;36966;48.064;-0.792;2023-02-15T14:30:49;16.40;44.10
50955;DHT22;36966;48.064;-0.792;2023-02-15T14:35:51;16.30;44.10
50955;DHT22;36966;48.064;-0.792;2023-02-15T14:41:04;16.30;44.10
50955;DHT22;36966;48.064;-0.792;2023-02-15T14:43:47;16.30;43.90
50955;DHT22;36966;48.064;-0.792;2023-02-15T14:46:30;16.30;44.10
50955;DHT22;36966;48.064;-0.792;2023-02-15T14:48:55;16.20;44.00
50955;DHT22;36966;48.064;-0.792;2023-02-15T14:54:07;16.20;43.90
50955;DHT22;36966;48.064;-0.792;2023-02-15T14:56:27;16.20;44.20
50955;DHT22;36966;48.064;-0.792;2023-02-15T15:01:10;16.20;44.50
50955;DHT22;36966;48.064;-0.792;2023-02-15T15:03:30;16.20;44.60
50955;DHT22;36966;48.064;-0.792;2023-02-15T15:05:52;16.20;44.30
50955;DHT22;36966;48.064;-0.792;2023-02-15T15:08:26;16.20;44.50
50955;DHT22;36966;48.064;-0.792;2023-02-15T15:10:47;16.10;44.40
50955;DHT22;36966;48.064;-0.792;2023-02-15T15:15:53;16.10;44.30
50955;DHT22;36966;48.064;-0.792;2023-02-15T15:21:03;16.00;44.70
50955;DHT22;36966;48.064;-0.792;2023-02-15T15:23:36;16.00;44.70
50955;DHT22;36966;48.064;-0.792;2023-02-15T15:26:21;16.00;44.70
50955;DHT22;36966;48.064;-0.792;2023-02-15T15:36:27;16.00;45.10
50955;DHT22;36966;48.064;-0.792;2023-02-15T15:42:12;15.90;45.00
50955;DHT22;36966;48.064;-0.792;2023-02-15T15:49:56;15.90;45.00
50955;DHT22;36966;48.064;-0.792;2023-02-15T15:52:17;15.80;45.10
50955;DHT22;36966;48.064;-0.792;2023-02-15T15:54:38;15.80;45.10
50955;DHT22;36966;48.064;-0.792;2023-02-15T15:57:03;15.80;45.50
50955;DHT22;36966;48.064;-0.792;2023-02-15T15:59:26;15.80;45.30
50955;DHT22;36966;48.064;-0.792;2023-02-15T16:01:46;15.80;45.40
50955;DHT22;36966;48.064;-0.792;2023-02-15T16:04:05;15.80;45.40
50955;DHT22;36966;48.064;-0.792;2023-02-15T16:06:36;15.80;45.50
50955;DHT22;36966;48.064;-0.792;2023-02-15T16:08:56;15.80;45.70
50955;DHT22;36966;48.064;-0.792;2023-02-15T16:11:27;15.80;45.50
50955;DHT22;36966;48.064;-0.792;2023-02-15T16:13:48;15.80;45.70
50955;DHT22;36966;48.064;-0.792;2023-02-15T16:16:08;15.70;45.70
50955;DHT22;36966;48.064;-0.792;2023-02-15T16:18:27;15.70;45.60
50955;DHT22;36966;48.064;-0.792;2023-02-15T16:20:54;15.70;45.90
50955;DHT22;36966;48.064;-0.792;2023-02-15T16:26:16;15.70;45.90
50955;DHT22;36966;48.064;-0.792;2023-02-15T16:28:38;15.70;46.00
50955;DHT22;36966;48.064;-0.792;2023-02-15T16:31:12;15.70;46.10
50955;DHT22;36966;48.064;-0.792;2023-02-15T16:33:36;15.70;46.40
50955;DHT22;36966;48.064;-0.792;2023-02-15T16:35:58;15.70;46.30
50955;DHT22;36966;48.064;-0.792;2023-02-15T16:38:28;15.70;46.70
50955;DHT22;36966;48.064;-0.792;2023-02-15T16:40:55;15.70;46.80
50955;DHT22;36966;48.064;-0.792;2023-02-15T16:43:23;15.70;46.90
50955;DHT22;36966;48.064;-0.792;2023-02-15T16:45:43;15.70;46.70
50955;DHT22;36966;48.064;-0.792;2023-02-15T16:48:07;15.70;46.90
50955;DHT22;36966;48.064;-0.792;2023-02-15T16:50:35;15.70;46.80
50955;DHT22;36966;48.064;-0.792;2023-02-15T16:52:56;15.60;47.30
50955;DHT22;36966;48.064;-0.792;2023-02-15T16:55:25;15.60;47.40
50955;DHT22;36966;48.064;-0.792;2023-02-15T16:57:44;15.60;47.30
50955;DHT22;36966;48.064;-0.792;2023-02-15T17:00:21;15.60;47.50
50955;DHT22;36966;48.064;-0.792;2023-02-15T17:02:59;15.50;47.50
50955;DHT22;36966;48.064;-0.792;2023-02-15T17:05:19;15.50;47.80
50955;DHT22;36966;48.064;-0.792;2023-02-15T17:08:26;15.50;47.70
50955;DHT22;36966;48.064;-0.792;2023-02-15T17:10:36;15.60;47.50
50955;DHT22;36966;48.064;-0.792;2023-02-15T17:13:09;15.60;47.50
50955;DHT22;36966;48.064;-0.792;2023-02-15T17:17:50;15.60;47.40
50955;DHT22;36966;48.064;-0.792;2023-02-15T17:20:14;15.60;47.40
50955;DHT22;36966;48.064;-0.792;2023-02-15T17:22:34;15.60;47.30
50955;DHT22;36966;48.064;-0.792;2023-02-15T17:25:00;15.60;47.20
50955;DHT22;36966;48.064;-0.792;2023-02-15T17:27:28;15.60;47.20
50955;DHT22;36966;48.064;-0.792;2023-02-15T17:29:57;15.60;47.10
50955;DHT22;36966;48.064;-0.792;2023-02-15T17:32:23;15.70;47.10
50955;DHT22;36966;48.064;-0.792;2023-02-15T17:39:57;15.70;47.00
50955;DHT22;36966;48.064;-0.792;2023-02-15T17:42:17;15.70;47.00
50955;DHT22;36966;48.064;-0.792;2023-02-15T17:44:36;15.70;47.10
50955;DHT22;36966;48.064;-0.792;2023-02-15T17:46:55;15.70;47.10
50955;DHT22;36966;48.064;-0.792;2023-02-15T17:49:23;15.70;47.10
50955;DHT22;36966;48.064;-0.792;2023-02-15T17:51:43;15.70;47.10
50955;DHT22;36966;48.064;-0.792;2023-02-15T17:54:02;15.70;47.10